sensor_id;sensor_type;location;lat;lon;timestamp;P1;durP1;ratioP1;P2;durP2;ratioP2
7110;SDS011;3597;42.650;23.386;2023-05-14T00:01:35;1.10;;;1.10;;
7110;SDS011;3597;42.650;23.386;2023-05-14T00:04:01;1.20;;;1.20;;
7110;SDS011;3597;42.650;23.386;2023-05-14T00:06:27;1.00;;;1.00;;
7110;SDS011;3597;42.650;23.386;2023-05-14T00:08:53;1.20;;;1.20;;
7110;SDS011;3597;42.650;23.386;2023-05-14T00:11:18;2.20;;;2.20;;
7110;SDS011;3597;42.650;23.386;2023-05-14T00:13:43;1.20;;;1.20;;
7110;SDS011;3597;42.650;23.386;2023-05-14T00:16:09;1.17;;;1.17;;
7110;SDS011;3597;42.650;23.386;2023-05-14T00:18:34;1.20;;;1.20;;
7110;SDS011;3597;42.650;23.386;2023-05-14T00:20:59;1.20;;;1.20;;
7110;SDS011;3597;42.650;23.386;2023-05-14T00:23:25;1.13;;;1.13;;
7110;SDS011;3597;42.650;23.386;2023-05-14T00:25:50;1.40;;;1.40;;
7110;SDS011;3597;42.650;23.386;2023-05-14T00:28:15;1.10;;;1.10;;
7110;SDS011;3597;42.650;23.386;2023-05-14T00:30:41;1.20;;;1.20;;
7110;SDS011;3597;42.650;23.386;2023-05-14T00:33:06;1.07;;;1.07;;
7110;SDS011;3597;42.650;23.386;2023-05-14T00:35:32;1.20;;;1.20;;
7110;SDS011;3597;42.650;23.386;2023-05-14T00:37:59;1.20;;;1.20;;
7110;SDS011;3597;42.650;23.386;2023-05-14T00:40:26;1.27;;;1.27;;
7110;SDS011;3597;42.650;23.386;2023-05-14T00:42:52;1.10;;;1.10;;
7110;SDS011;3597;42.650;23.386;2023-05-14T00:45:17;1.50;;;1.40;;
7110;SDS011;3597;42.650;23.386;2023-05-14T00:47:43;1.10;;;1.10;;
7110;SDS011;3597;42.650;23.386;2023-05-14T00:50:10;1.20;;;1.20;;
7110;SDS011;3597;42.650;23.386;2023-05-14T00:52:36;1.20;;;1.20;;
7110;SDS011;3597;42.650;23.386;2023-05-14T00:55:05;1.30;;;1.30;;
7110;SDS011;3597;42.650;23.386;2023-05-14T00:57:32;1.30;;;1.30;;
7110;SDS011;3597;42.650;23.386;2023-05-14T00:59:58;1.10;;;1.10;;
7110;SDS011;3597;42.650;23.386;2023-05-14T01:02:23;1.17;;;1.17;;
7110;SDS011;3597;42.650;23.386;2023-05-14T01:04:49;1.00;;;1.00;;
7110;SDS011;3597;42.650;23.386;2023-05-14T01:09:54;1.03;;;1.03;;
7110;SDS011;3597;42.650;23.386;2023-05-14T01:12:37;1.40;;;1.40;;
7110;SDS011;3597;42.650;23.386;2023-05-14T01:17:45;1.00;;;1.00;;
7110;SDS011;3597;42.650;23.386;2023-05-14T01:20:19;1.20;;;1.20;;
7110;SDS011;3597;42.650;23.386;2023-05-14T01:22:45;1.10;;;1.10;;
7110;SDS011;3597;42.650;23.386;2023-05-14T01:25:11;1.30;;;1.30;;
7110;SDS011;3597;42.650;23.386;2023-05-14T01:30:35;1.20;;;1.20;;
7110;SDS011;3597;42.650;23.386;2023-05-14T01:33:02;1.00;;;1.00;;
7110;SDS011;3597;42.650;23.386;2023-05-14T01:35:30;1.60;;;1.60;;
7110;SDS011;3597;42.650;23.386;2023-05-14T01:37:57;1.57;;;1.53;;
7110;SDS011;3597;42.650;23.386;2023-05-14T01:40:25;1.67;;;1.57;;
7110;SDS011;3597;42.650;23.386;2023-05-14T01:42:51;1.30;;;1.30;;
7110;SDS011;3597;42.650;23.386;2023-05-14T01:45:20;1.20;;;1.20;;
7110;SDS011;3597;42.650;23.386;2023-05-14T01:47:45;1.00;;;1.00;;
7110;SDS011;3597;42.650;23.386;2023-05-14T01:50:11;1.10;;;1.10;;
7110;SDS011;3597;42.650;23.386;2023-05-14T01:52:36;1.10;;;1.10;;
7110;SDS011;3597;42.650;23.386;2023-05-14T01:55:01;1.03;;;1.03;;
7110;SDS011;3597;42.650;23.386;2023-05-14T01:57:29;1.20;;;1.20;;
7110;SDS011;3597;42.650;23.386;2023-05-14T01:59:54;1.00;;;1.00;;
7110;SDS011;3597;42.650;23.386;2023-05-14T02:02:19;1.00;;;1.00;;
7110;SDS011;3597;42.650;23.386;2023-05-14T02:04:45;1.10;;;1.10;;
7110;SDS011;3597;42.650;23.386;2023-05-14T02:07:11;1.20;;;1.20;;
7110;SDS011;3597;42.650;23.386;2023-05-14T02:09:36;1.30;;;1.30;;
7110;SDS011;3597;42.650;23.386;2023-05-14T02:12:01;1.00;;;1.00;;
7110;SDS011;3597;42.650;23.386;2023-05-14T02:14:27;1.00;;;1.00;;
7110;SDS011;3597;42.650;23.386;2023-05-14T02:16:52;1.00;;;1.00;;
7110;SDS011;3597;42.650;23.386;2023-05-14T02:19:18;1.13;;;1.13;;
7110;SDS011;3597;42.650;23.386;2023-05-14T02:21:43;1.10;;;1.10;;
7110;SDS011;3597;42.650;23.386;2023-05-14T02:24:08;1.00;;;1.00;;
7110;SDS011;3597;42.650;23.386;2023-05-14T02:26:34;1.20;;;1.20;;
7110;SDS011;3597;42.650;23.386;2023-05-14T02:28:59;1.10;;;1.10;;
7110;SDS011;3597;42.650;23.386;2023-05-14T02:31:24;1.10;;;1.10;;
7110;SDS011;3597;42.650;23.386;2023-05-14T02:33:50;1.17;;;1.17;;
7110;SDS011;3597;42.650;23.386;2023-05-14T02:36:15;1.00;;;1.00;;
7110;SDS011;3597;42.650;23.386;2023-05-14T02:38:41;1.10;;;1.10;;
7110;SDS011;3597;42.650;23.386;2023-05-14T02:41:06;1.10;;;1.10;;
7110;SDS011;3597;42.650;23.386;2023-05-14T02:43:31;1.00;;;1.00;;
7110;SDS011;3597;42.650;23.386;2023-05-14T02:45:56;1.00;;;1.00;;
7110;SDS011;3597;42.650;23.386;2023-05-14T02:48:22;0.90;;;0.90;;
7110;SDS011;3597;42.650;23.386;2023-05-14T02:50:48;1.10;;;1.10;;
7110;SDS011;3597;42.650;23.386;2023-05-14T02:53:15;1.20;;;1.20;;
7110;SDS011;3597;42.650;23.386;2023-05-14T02:55:40;1.00;;;1.00;;
7110;SDS011;3597;42.650;23.386;2023-05-14T02:58:06;1.27;;;1.27;;
7110;SDS011;3597;42.650;23.386;2023-05-14T03:00:31;1.10;;;1.10;;
7110;SDS011;3597;42.650;23.386;2023-05-14T03:02:56;0.97;;;0.97;;
7110;SDS011;3597;42.650;23.386;2023-05-14T03:05:22;0.97;;;0.97;;
7110;SDS011;3597;42.650;23.386;2023-05-14T03:07:48;1.20;;;1.20;;
7110;SDS011;3597;42.650;23.386;2023-05-14T03:10:15;1.20;;;1.20;;
7110;SDS011;3597;42.650;23.386;2023-05-14T03:12:40;1.10;;;1.10;;
7110;SDS011;3597;42.650;23.386;2023-05-14T03:15:06;0.90;;;0.90;;
7110;SDS011;3597;42.650;23.386;2023-05-14T03:17:32;1.10;;;1.10;;
7110;SDS011;3597;42.650;23.386;2023-05-14T03:19:58;1.10;;;1.10;;
7110;SDS011;3597;42.650;23.386;2023-05-14T03:22:23;1.20;;;1.20;;
7110;SDS011;3597;42.650;23.386;2023-05-14T03:24:48;1.17;;;1.17;;
7110;SDS011;3597;42.650;23.386;2023-05-14T03:27:14;1.07;;;1.07;;
7110;SDS011;3597;42.650;23.386;2023-05-14T03:29:39;1.00;;;1.00;;
7110;SDS011;3597;42.650;23.386;2023-05-14T03:32:05;1.10;;;1.10;;
7110;SDS011;3597;42.650;23.386;2023-05-14T03:34:30;1.20;;;1.20;;
7110;SDS011;3597;42.650;23.386;2023-05-14T03:36:56;1.10;;;1.10;;
7110;SDS011;3597;42.650;23.386;2023-05-14T03:39:21;1.23;;;1.23;;
7110;SDS011;3597;42.650;23.386;2023-05-14T03:41:47;1.03;;;1.03;;
7110;SDS011;3597;42.650;23.386;2023-05-14T03:44:12;1.00;;;1.00;;
7110;SDS011;3597;42.650;23.386;2023-05-14T03:46:38;1.10;;;1.10;;
7110;SDS011;3597;42.650;23.386;2023-05-14T03:49:03;1.10;;;1.10;;
7110;SDS011;3597;42.650;23.386;2023-05-14T03:51:30;0.90;;;0.90;;
7110;SDS011;3597;42.650;23.386;2023-05-14T03:53:56;1.10;;;1.10;;
7110;SDS011;3597;42.650;23.386;2023-05-14T03:56:22;1.17;;;1.17;;
7110;SDS011;3597;42.650;23.386;2023-05-14T03:58:48;1.30;;;1.30;;
7110;SDS011;3597;42.650;23.386;2023-05-14T04:01:13;1.10;;;1.10;;
7110;SDS011;3597;42.650;23.386;2023-05-14T04:03:39;1.00;;;1.00;;
7110;SDS011;3597;42.650;23.386;2023-05-14T04:06:04;1.03;;;1.03;;
7110;SDS011;3597;42.650;23.386;2023-05-14T04:08:29;0.93;;;0.93;;
7110;SDS011;3597;42.650;23.386;2023-05-14T04:10:55;1.50;;;1.50;;
7110;SDS011;3597;42.650;23.386;2023-05-14T04:13:20;1.10;;;1.10;;
7110;SDS011;3597;42.650;23.386;2023-05-14T04:15:45;1.07;;;1.07;;
7110;SDS011;3597;42.650;23.386;2023-05-14T04:18:11;1.13;;;1.13;;
7110;SDS011;3597;42.650;23.386;2023-05-14T04:20:36;1.10;;;1.10;;
7110;SDS011;3597;42.650;23.386;2023-05-14T04:23:02;1.20;;;1.20;;
7110;SDS011;3597;42.650;23.386;2023-05-14T04:25:27;1.00;;;1.00;;
7110;SDS011;3597;42.650;23.386;2023-05-14T04:27:52;1.10;;;1.10;;
7110;SDS011;3597;42.650;23.386;2023-05-14T04:30:18;1.13;;;1.13;;
7110;SDS011;3597;42.650;23.386;2023-05-14T04:32:43;1.37;;;1.37;;
7110;SDS011;3597;42.650;23.386;2023-05-14T04:35:08;1.17;;;1.17;;
7110;SDS011;3597;42.650;23.386;2023-05-14T04:37:34;0.90;;;0.90;;
7110;SDS011;3597;42.650;23.386;2023-05-14T04:40:00;1.13;;;1.13;;
7110;SDS011;3597;42.650;23.386;2023-05-14T04:42:25;1.00;;;1.00;;
7110;SDS011;3597;42.650;23.386;2023-05-14T04:44:50;1.20;;;1.20;;
7110;SDS011;3597;42.650;23.386;2023-05-14T04:47:16;0.90;;;0.90;;
7110;SDS011;3597;42.650;23.386;2023-05-14T04:49:41;0.90;;;0.90;;
7110;SDS011;3597;42.650;23.386;2023-05-14T04:52:07;1.00;;;1.00;;
7110;SDS011;3597;42.650;23.386;2023-05-14T04:54:32;1.17;;;1.17;;
7110;SDS011;3597;42.650;23.386;2023-05-14T04:56:58;1.10;;;1.10;;
7110;SDS011;3597;42.650;23.386;2023-05-14T04:59:27;0.90;;;0.90;;
7110;SDS011;3597;42.650;23.386;2023-05-14T05:01:55;1.13;;;1.13;;
7110;SDS011;3597;42.650;23.386;2023-05-14T05:04:20;1.43;;;1.43;;
7110;SDS011;3597;42.650;23.386;2023-05-14T05:06:48;1.80;;;1.80;;
7110;SDS011;3597;42.650;23.386;2023-05-14T05:09:13;2.73;;;2.73;;
7110;SDS011;3597;42.650;23.386;2023-05-14T05:11:39;2.00;;;2.00;;
7110;SDS011;3597;42.650;23.386;2023-05-14T05:14:04;1.70;;;1.70;;
7110;SDS011;3597;42.650;23.386;2023-05-14T05:16:29;1.50;;;1.50;;
7110;SDS011;3597;42.650;23.386;2023-05-14T05:18:55;1.20;;;1.20;;
7110;SDS011;3597;42.650;23.386;2023-05-14T05:21:20;1.00;;;1.00;;
7110;SDS011;3597;42.650;23.386;2023-05-14T05:23:46;1.53;;;1.53;;
7110;SDS011;3597;42.650;23.386;2023-05-14T05:26:11;1.00;;;1.00;;
7110;SDS011;3597;42.650;23.386;2023-05-14T05:28:36;1.07;;;1.07;;
7110;SDS011;3597;42.650;23.386;2023-05-14T05:31:01;1.27;;;1.27;;
7110;SDS011;3597;42.650;23.386;2023-05-14T05:33:27;1.20;;;1.20;;
7110;SDS011;3597;42.650;23.386;2023-05-14T05:35:52;0.90;;;0.90;;
7110;SDS011;3597;42.650;23.386;2023-05-14T05:38:17;1.30;;;1.30;;
7110;SDS011;3597;42.650;23.386;2023-05-14T05:40:43;2.17;;;2.17;;
7110;SDS011;3597;42.650;23.386;2023-05-14T05:43:08;2.40;;;2.40;;
7110;SDS011;3597;42.650;23.386;2023-05-14T05:45:34;2.80;;;2.80;;
7110;SDS011;3597;42.650;23.386;2023-05-14T05:47:59;3.93;;;3.93;;
7110;SDS011;3597;42.650;23.386;2023-05-14T05:50:24;3.53;;;3.30;;
7110;SDS011;3597;42.650;23.386;2023-05-14T05:52:50;3.87;;;3.87;;
7110;SDS011;3597;42.650;23.386;2023-05-14T05:55:16;6.13;;;6.03;;
7110;SDS011;3597;42.650;23.386;2023-05-14T05:57:41;3.87;;;3.87;;
7110;SDS011;3597;42.650;23.386;2023-05-14T06:00:07;1.80;;;1.80;;
7110;SDS011;3597;42.650;23.386;2023-05-14T06:02:37;1.60;;;1.60;;
7110;SDS011;3597;42.650;23.386;2023-05-14T06:05:03;1.10;;;1.10;;
7110;SDS011;3597;42.650;23.386;2023-05-14T06:07:28;1.20;;;1.20;;
7110;SDS011;3597;42.650;23.386;2023-05-14T06:09:54;1.53;;;1.53;;
7110;SDS011;3597;42.650;23.386;2023-05-14T06:12:20;1.80;;;1.80;;
7110;SDS011;3597;42.650;23.386;2023-05-14T06:14:45;1.50;;;1.50;;
7110;SDS011;3597;42.650;23.386;2023-05-14T06:17:11;1.40;;;1.40;;
7110;SDS011;3597;42.650;23.386;2023-05-14T06:19:36;1.27;;;1.27;;
7110;SDS011;3597;42.650;23.386;2023-05-14T06:22:01;1.20;;;1.20;;
7110;SDS011;3597;42.650;23.386;2023-05-14T06:24:27;1.37;;;1.37;;
7110;SDS011;3597;42.650;23.386;2023-05-14T06:26:52;2.43;;;1.50;;
7110;SDS011;3597;42.650;23.386;2023-05-14T06:29:17;1.23;;;1.23;;
7110;SDS011;3597;42.650;23.386;2023-05-14T06:31:43;1.20;;;1.20;;
7110;SDS011;3597;42.650;23.386;2023-05-14T06:34:08;1.30;;;1.30;;
7110;SDS011;3597;42.650;23.386;2023-05-14T06:36:34;2.23;;;1.40;;
7110;SDS011;3597;42.650;23.386;2023-05-14T06:38:59;1.47;;;1.47;;
7110;SDS011;3597;42.650;23.386;2023-05-14T06:41:25;1.33;;;1.33;;
7110;SDS011;3597;42.650;23.386;2023-05-14T06:43:50;1.40;;;1.40;;
7110;SDS011;3597;42.650;23.386;2023-05-14T06:46:16;1.40;;;1.40;;
7110;SDS011;3597;42.650;23.386;2023-05-14T06:48:41;1.13;;;1.13;;
7110;SDS011;3597;42.650;23.386;2023-05-14T06:51:06;1.20;;;1.20;;
7110;SDS011;3597;42.650;23.386;2023-05-14T06:53:32;1.40;;;1.40;;
7110;SDS011;3597;42.650;23.386;2023-05-14T06:55:57;1.37;;;1.37;;
7110;SDS011;3597;42.650;23.386;2023-05-14T06:58:23;1.17;;;1.17;;
7110;SDS011;3597;42.650;23.386;2023-05-14T07:00:48;1.20;;;1.20;;
7110;SDS011;3597;42.650;23.386;2023-05-14T07:03:13;1.50;;;1.50;;
7110;SDS011;3597;42.650;23.386;2023-05-14T07:05:39;1.33;;;1.33;;
7110;SDS011;3597;42.650;23.386;2023-05-14T07:08:05;1.53;;;1.53;;
7110;SDS011;3597;42.650;23.386;2023-05-14T07:10:30;1.73;;;1.63;;
7110;SDS011;3597;42.650;23.386;2023-05-14T07:12:56;1.90;;;1.80;;
7110;SDS011;3597;42.650;23.386;2023-05-14T07:15:22;1.70;;;1.70;;
7110;SDS011;3597;42.650;23.386;2023-05-14T07:17:47;2.40;;;2.40;;
7110;SDS011;3597;42.650;23.386;2023-05-14T07:20:13;2.80;;;2.70;;
7110;SDS011;3597;42.650;23.386;2023-05-14T07:22:38;1.90;;;1.90;;
7110;SDS011;3597;42.650;23.386;2023-05-14T07:25:03;1.67;;;1.60;;
7110;SDS011;3597;42.650;23.386;2023-05-14T07:27:30;1.80;;;1.80;;
7110;SDS011;3597;42.650;23.386;2023-05-14T07:29:55;2.00;;;2.00;;
7110;SDS011;3597;42.650;23.386;2023-05-14T07:32:20;2.23;;;2.23;;
7110;SDS011;3597;42.650;23.386;2023-05-14T07:34:46;1.57;;;1.57;;
7110;SDS011;3597;42.650;23.386;2023-05-14T07:37:11;1.33;;;1.33;;
7110;SDS011;3597;42.650;23.386;2023-05-14T07:39:37;2.37;;;2.27;;
7110;SDS011;3597;42.650;23.386;2023-05-14T07:42:03;1.60;;;1.60;;
7110;SDS011;3597;42.650;23.386;2023-05-14T07:44:28;1.97;;;1.87;;
7110;SDS011;3597;42.650;23.386;2023-05-14T07:46:53;1.97;;;1.97;;
7110;SDS011;3597;42.650;23.386;2023-05-14T07:49:19;2.80;;;2.80;;
7110;SDS011;3597;42.650;23.386;2023-05-14T07:51:44;2.00;;;2.00;;
7110;SDS011;3597;42.650;23.386;2023-05-14T07:54:10;2.50;;;2.50;;
7110;SDS011;3597;42.650;23.386;2023-05-14T07:56:35;2.20;;;2.20;;
7110;SDS011;3597;42.650;23.386;2023-05-14T07:59:00;2.17;;;2.17;;
7110;SDS011;3597;42.650;23.386;2023-05-14T08:01:26;1.50;;;1.50;;
7110;SDS011;3597;42.650;23.386;2023-05-14T08:03:51;2.20;;;2.20;;
7110;SDS011;3597;42.650;23.386;2023-05-14T08:06:16;1.40;;;1.40;;
7110;SDS011;3597;42.650;23.386;2023-05-14T08:08:42;1.57;;;1.57;;
7110;SDS011;3597;42.650;23.386;2023-05-14T08:11:07;1.57;;;1.57;;
7110;SDS011;3597;42.650;23.386;2023-05-14T08:13:33;1.73;;;1.63;;
7110;SDS011;3597;42.650;23.386;2023-05-14T08:15:58;1.60;;;1.60;;
7110;SDS011;3597;42.650;23.386;2023-05-14T08:18:24;1.37;;;1.37;;
7110;SDS011;3597;42.650;23.386;2023-05-14T08:20:49;1.40;;;1.40;;
7110;SDS011;3597;42.650;23.386;2023-05-14T08:23:15;1.43;;;1.43;;
7110;SDS011;3597;42.650;23.386;2023-05-14T08:25:41;1.50;;;1.50;;
7110;SDS011;3597;42.650;23.386;2023-05-14T08:28:06;2.07;;;2.07;;
7110;SDS011;3597;42.650;23.386;2023-05-14T08:30:32;1.57;;;1.57;;
7110;SDS011;3597;42.650;23.386;2023-05-14T08:32:57;1.53;;;1.53;;
7110;SDS011;3597;42.650;23.386;2023-05-14T08:35:22;1.70;;;1.70;;
7110;SDS011;3597;42.650;23.386;2023-05-14T08:37:48;1.60;;;1.60;;
7110;SDS011;3597;42.650;23.386;2023-05-14T08:40:14;1.50;;;1.50;;
7110;SDS011;3597;42.650;23.386;2023-05-14T08:42:39;1.53;;;1.53;;
7110;SDS011;3597;42.650;23.386;2023-05-14T08:45:05;1.73;;;1.73;;
7110;SDS011;3597;42.650;23.386;2023-05-14T08:47:46;1.50;;;1.50;;
7110;SDS011;3597;42.650;23.386;2023-05-14T08:50:14;1.60;;;1.60;;
7110;SDS011;3597;42.650;23.386;2023-05-14T08:52:39;1.40;;;1.40;;
7110;SDS011;3597;42.650;23.386;2023-05-14T08:55:05;1.67;;;1.67;;
7110;SDS011;3597;42.650;23.386;2023-05-14T08:57:30;2.00;;;1.90;;
7110;SDS011;3597;42.650;23.386;2023-05-14T08:59:57;2.77;;;1.90;;
7110;SDS011;3597;42.650;23.386;2023-05-14T09:02:23;1.60;;;1.60;;
7110;SDS011;3597;42.650;23.386;2023-05-14T09:04:54;1.53;;;1.53;;
7110;SDS011;3597;42.650;23.386;2023-05-14T09:07:20;1.50;;;1.50;;
7110;SDS011;3597;42.650;23.386;2023-05-14T09:09:46;1.20;;;1.20;;
7110;SDS011;3597;42.650;23.386;2023-05-14T09:12:12;1.60;;;1.60;;
7110;SDS011;3597;42.650;23.386;2023-05-14T09:14:37;1.80;;;1.80;;
7110;SDS011;3597;42.650;23.386;2023-05-14T09:17:02;1.80;;;1.80;;
7110;SDS011;3597;42.650;23.386;2023-05-14T09:19:28;1.83;;;1.83;;
7110;SDS011;3597;42.650;23.386;2023-05-14T09:21:55;1.70;;;1.70;;
7110;SDS011;3597;42.650;23.386;2023-05-14T09:24:22;2.00;;;2.00;;
7110;SDS011;3597;42.650;23.386;2023-05-14T09:26:49;1.70;;;1.70;;
7110;SDS011;3597;42.650;23.386;2023-05-14T09:29:16;2.40;;;2.40;;
7110;SDS011;3597;42.650;23.386;2023-05-14T09:31:41;2.00;;;1.90;;
7110;SDS011;3597;42.650;23.386;2023-05-14T09:34:06;2.10;;;2.00;;
7110;SDS011;3597;42.650;23.386;2023-05-14T09:36:33;1.90;;;1.90;;
7110;SDS011;3597;42.650;23.386;2023-05-14T09:38:59;1.80;;;1.80;;
7110;SDS011;3597;42.650;23.386;2023-05-14T09:41:24;1.77;;;1.77;;
7110;SDS011;3597;42.650;23.386;2023-05-14T09:43:50;1.90;;;1.90;;
7110;SDS011;3597;42.650;23.386;2023-05-14T09:46:15;1.87;;;1.87;;
7110;SDS011;3597;42.650;23.386;2023-05-14T09:48:41;1.53;;;1.53;;
7110;SDS011;3597;42.650;23.386;2023-05-14T09:51:08;2.07;;;2.07;;
7110;SDS011;3597;42.650;23.386;2023-05-14T09:53:34;2.10;;;2.10;;
7110;SDS011;3597;42.650;23.386;2023-05-14T09:55:59;2.00;;;2.00;;
7110;SDS011;3597;42.650;23.386;2023-05-14T09:58:25;1.87;;;1.87;;
7110;SDS011;3597;42.650;23.386;2023-05-14T10:00:50;2.13;;;2.13;;
7110;SDS011;3597;42.650;23.386;2023-05-14T10:03:16;2.00;;;2.00;;
7110;SDS011;3597;42.650;23.386;2023-05-14T10:05:42;2.33;;;2.33;;
7110;SDS011;3597;42.650;23.386;2023-05-14T10:08:12;1.70;;;1.70;;
7110;SDS011;3597;42.650;23.386;2023-05-14T10:10:41;2.10;;;2.10;;
7110;SDS011;3597;42.650;23.386;2023-05-14T10:13:09;2.03;;;2.03;;
7110;SDS011;3597;42.650;23.386;2023-05-14T10:15:48;2.30;;;2.20;;
7110;SDS011;3597;42.650;23.386;2023-05-14T10:18:42;1.90;;;1.90;;
7110;SDS011;3597;42.650;23.386;2023-05-14T10:21:12;1.63;;;1.63;;
7110;SDS011;3597;42.650;23.386;2023-05-14T10:23:38;1.97;;;1.97;;
7110;SDS011;3597;42.650;23.386;2023-05-14T10:26:04;4.13;;;2.23;;
7110;SDS011;3597;42.650;23.386;2023-05-14T10:28:30;1.70;;;1.70;;
7110;SDS011;3597;42.650;23.386;2023-05-14T10:30:56;1.80;;;1.80;;
7110;SDS011;3597;42.650;23.386;2023-05-14T10:33:21;1.80;;;1.80;;
7110;SDS011;3597;42.650;23.386;2023-05-14T10:35:51;2.00;;;2.00;;
7110;SDS011;3597;42.650;23.386;2023-05-14T10:38:29;1.67;;;1.67;;
7110;SDS011;3597;42.650;23.386;2023-05-14T10:41:06;1.80;;;1.80;;
7110;SDS011;3597;42.650;23.386;2023-05-14T10:43:38;1.90;;;1.90;;
7110;SDS011;3597;42.650;23.386;2023-05-14T10:46:05;1.70;;;1.70;;
7110;SDS011;3597;42.650;23.386;2023-05-14T10:48:31;1.93;;;1.93;;
7110;SDS011;3597;42.650;23.386;2023-05-14T10:50:57;2.20;;;2.13;;
7110;SDS011;3597;42.650;23.386;2023-05-14T10:53:35;1.77;;;1.77;;
7110;SDS011;3597;42.650;23.386;2023-05-14T10:56:05;1.30;;;1.30;;
7110;SDS011;3597;42.650;23.386;2023-05-14T10:58:34;1.73;;;1.70;;
7110;SDS011;3597;42.650;23.386;2023-05-14T11:01:01;1.50;;;1.50;;
7110;SDS011;3597;42.650;23.386;2023-05-14T11:03:29;1.40;;;1.40;;
7110;SDS011;3597;42.650;23.386;2023-05-14T11:05:58;1.70;;;1.70;;
7110;SDS011;3597;42.650;23.386;2023-05-14T11:08:25;1.70;;;1.70;;
7110;SDS011;3597;42.650;23.386;2023-05-14T11:10:53;1.73;;;1.63;;
7110;SDS011;3597;42.650;23.386;2023-05-14T11:13:18;1.87;;;1.87;;
7110;SDS011;3597;42.650;23.386;2023-05-14T11:15:44;1.43;;;1.43;;
7110;SDS011;3597;42.650;23.386;2023-05-14T11:18:12;1.60;;;1.60;;
7110;SDS011;3597;42.650;23.386;2023-05-14T11:20:37;1.73;;;1.73;;
7110;SDS011;3597;42.650;23.386;2023-05-14T11:23:02;1.87;;;1.87;;
7110;SDS011;3597;42.650;23.386;2023-05-14T11:25:28;2.83;;;2.80;;
7110;SDS011;3597;42.650;23.386;2023-05-14T11:27:54;1.47;;;1.47;;
7110;SDS011;3597;42.650;23.386;2023-05-14T11:30:22;2.23;;;2.23;;
7110;SDS011;3597;42.650;23.386;2023-05-14T11:32:48;1.80;;;1.80;;
7110;SDS011;3597;42.650;23.386;2023-05-14T11:35:14;1.90;;;1.83;;
7110;SDS011;3597;42.650;23.386;2023-05-14T11:37:41;1.73;;;1.73;;
7110;SDS011;3597;42.650;23.386;2023-05-14T11:40:07;1.93;;;1.93;;
7110;SDS011;3597;42.650;23.386;2023-05-14T11:42:35;1.70;;;1.70;;
7110;SDS011;3597;42.650;23.386;2023-05-14T11:45:01;1.83;;;1.73;;
7110;SDS011;3597;42.650;23.386;2023-05-14T11:47:27;1.80;;;1.70;;
7110;SDS011;3597;42.650;23.386;2023-05-14T11:49:53;1.80;;;1.80;;
7110;SDS011;3597;42.650;23.386;2023-05-14T11:52:19;1.97;;;1.97;;
7110;SDS011;3597;42.650;23.386;2023-05-14T11:54:46;1.77;;;1.77;;
7110;SDS011;3597;42.650;23.386;2023-05-14T11:57:15;2.00;;;2.00;;
7110;SDS011;3597;42.650;23.386;2023-05-14T11:59:42;1.80;;;1.80;;
7110;SDS011;3597;42.650;23.386;2023-05-14T12:02:11;1.90;;;1.90;;
7110;SDS011;3597;42.650;23.386;2023-05-14T12:04:37;1.60;;;1.60;;
7110;SDS011;3597;42.650;23.386;2023-05-14T12:07:10;1.57;;;1.57;;
7110;SDS011;3597;42.650;23.386;2023-05-14T12:09:37;1.87;;;1.87;;
7110;SDS011;3597;42.650;23.386;2023-05-14T12:12:10;1.60;;;1.60;;
7110;SDS011;3597;42.650;23.386;2023-05-14T12:14:39;2.00;;;2.00;;
7110;SDS011;3597;42.650;23.386;2023-05-14T12:17:19;1.70;;;1.70;;
7110;SDS011;3597;42.650;23.386;2023-05-14T12:19:49;1.63;;;1.63;;
7110;SDS011;3597;42.650;23.386;2023-05-14T12:22:17;1.67;;;1.67;;
7110;SDS011;3597;42.650;23.386;2023-05-14T12:24:51;2.00;;;1.83;;
7110;SDS011;3597;42.650;23.386;2023-05-14T12:27:27;1.60;;;1.60;;
7110;SDS011;3597;42.650;23.386;2023-05-14T12:32:32;1.40;;;1.40;;
7110;SDS011;3597;42.650;23.386;2023-05-14T12:34:59;1.97;;;1.97;;
7110;SDS011;3597;42.650;23.386;2023-05-14T12:37:25;1.80;;;1.80;;
7110;SDS011;3597;42.650;23.386;2023-05-14T12:39:51;1.60;;;1.60;;
7110;SDS011;3597;42.650;23.386;2023-05-14T12:42:16;1.80;;;1.80;;
7110;SDS011;3597;42.650;23.386;2023-05-14T12:44:42;1.87;;;1.87;;
7110;SDS011;3597;42.650;23.386;2023-05-14T12:47:07;1.90;;;1.90;;
7110;SDS011;3597;42.650;23.386;2023-05-14T12:49:32;2.00;;;2.00;;
7110;SDS011;3597;42.650;23.386;2023-05-14T12:51:58;1.83;;;1.83;;
7110;SDS011;3597;42.650;23.386;2023-05-14T12:54:23;1.60;;;1.60;;
7110;SDS011;3597;42.650;23.386;2023-05-14T12:56:48;2.13;;;2.10;;
7110;SDS011;3597;42.650;23.386;2023-05-14T12:59:14;2.00;;;1.90;;
7110;SDS011;3597;42.650;23.386;2023-05-14T13:01:40;2.10;;;2.10;;
7110;SDS011;3597;42.650;23.386;2023-05-14T13:04:05;2.23;;;2.23;;
7110;SDS011;3597;42.650;23.386;2023-05-14T13:06:31;1.80;;;1.80;;
7110;SDS011;3597;42.650;23.386;2023-05-14T13:08:57;2.07;;;2.00;;
7110;SDS011;3597;42.650;23.386;2023-05-14T13:11:25;2.93;;;1.57;;
7110;SDS011;3597;42.650;23.386;2023-05-14T13:13:53;2.77;;;2.00;;
7110;SDS011;3597;42.650;23.386;2023-05-14T13:16:18;1.60;;;1.60;;
7110;SDS011;3597;42.650;23.386;2023-05-14T13:18:44;1.60;;;1.60;;
7110;SDS011;3597;42.650;23.386;2023-05-14T13:21:09;1.80;;;1.80;;
7110;SDS011;3597;42.650;23.386;2023-05-14T13:23:36;1.90;;;1.90;;
7110;SDS011;3597;42.650;23.386;2023-05-14T13:26:02;1.97;;;1.97;;
7110;SDS011;3597;42.650;23.386;2023-05-14T13:28:27;1.97;;;1.97;;
7110;SDS011;3597;42.650;23.386;2023-05-14T13:31:02;1.63;;;1.63;;
7110;SDS011;3597;42.650;23.386;2023-05-14T13:33:30;2.23;;;2.23;;
7110;SDS011;3597;42.650;23.386;2023-05-14T13:35:55;1.90;;;1.90;;
7110;SDS011;3597;42.650;23.386;2023-05-14T13:38:20;2.00;;;2.00;;
7110;SDS011;3597;42.650;23.386;2023-05-14T13:40:46;1.83;;;1.83;;
7110;SDS011;3597;42.650;23.386;2023-05-14T13:43:11;1.93;;;1.93;;
7110;SDS011;3597;42.650;23.386;2023-05-14T13:45:36;2.23;;;2.23;;
7110;SDS011;3597;42.650;23.386;2023-05-14T13:48:02;1.73;;;1.73;;
7110;SDS011;3597;42.650;23.386;2023-05-14T13:50:27;2.00;;;2.00;;
7110;SDS011;3597;42.650;23.386;2023-05-14T13:52:52;2.13;;;2.03;;
7110;SDS011;3597;42.650;23.386;2023-05-14T13:55:18;2.20;;;2.20;;
7110;SDS011;3597;42.650;23.386;2023-05-14T13:57:43;2.00;;;2.00;;
7110;SDS011;3597;42.650;23.386;2023-05-14T14:00:08;1.90;;;1.90;;
7110;SDS011;3597;42.650;23.386;2023-05-14T14:02:35;1.97;;;1.97;;
7110;SDS011;3597;42.650;23.386;2023-05-14T14:05:00;2.00;;;1.93;;
7110;SDS011;3597;42.650;23.386;2023-05-14T14:07:25;2.30;;;2.30;;
7110;SDS011;3597;42.650;23.386;2023-05-14T14:09:51;2.10;;;2.10;;
7110;SDS011;3597;42.650;23.386;2023-05-14T14:12:16;1.93;;;1.93;;
7110;SDS011;3597;42.650;23.386;2023-05-14T14:14:41;2.00;;;2.00;;
7110;SDS011;3597;42.650;23.386;2023-05-14T14:17:07;1.73;;;1.73;;
7110;SDS011;3597;42.650;23.386;2023-05-14T14:19:33;2.17;;;2.17;;
7110;SDS011;3597;42.650;23.386;2023-05-14T14:21:58;2.40;;;2.30;;
7110;SDS011;3597;42.650;23.386;2023-05-14T14:24:23;1.87;;;1.87;;
7110;SDS011;3597;42.650;23.386;2023-05-14T14:26:49;2.00;;;2.00;;
7110;SDS011;3597;42.650;23.386;2023-05-14T14:29:14;2.50;;;2.40;;
7110;SDS011;3597;42.650;23.386;2023-05-14T14:31:40;2.43;;;2.40;;
7110;SDS011;3597;42.650;23.386;2023-05-14T14:34:05;2.33;;;2.33;;
7110;SDS011;3597;42.650;23.386;2023-05-14T14:36:30;2.43;;;2.43;;
7110;SDS011;3597;42.650;23.386;2023-05-14T14:38:55;2.10;;;2.10;;
7110;SDS011;3597;42.650;23.386;2023-05-14T14:41:22;2.70;;;2.60;;
7110;SDS011;3597;42.650;23.386;2023-05-14T14:43:47;2.27;;;2.27;;
7110;SDS011;3597;42.650;23.386;2023-05-14T14:46:13;2.60;;;2.60;;
7110;SDS011;3597;42.650;23.386;2023-05-14T14:48:39;2.43;;;2.33;;
7110;SDS011;3597;42.650;23.386;2023-05-14T14:51:05;2.30;;;2.30;;
7110;SDS011;3597;42.650;23.386;2023-05-14T14:53:31;1.97;;;1.97;;
7110;SDS011;3597;42.650;23.386;2023-05-14T14:55:57;2.20;;;2.20;;
7110;SDS011;3597;42.650;23.386;2023-05-14T14:58:24;2.13;;;2.13;;
7110;SDS011;3597;42.650;23.386;2023-05-14T15:00:50;2.60;;;2.50;;
7110;SDS011;3597;42.650;23.386;2023-05-14T15:03:19;2.60;;;2.60;;
7110;SDS011;3597;42.650;23.386;2023-05-14T15:05:45;2.80;;;2.70;;